createdAt,value
2017-11-30T00:00:18.409Z,32.60
2017-11-30T00:01:18.381Z,30.20
2017-11-30T00:02:18.355Z,29.70
2017-11-30T00:03:18.328Z,31.30
2017-11-30T00:04:18.303Z,29.00
2017-11-30T00:05:18.275Z,30.30
2017-11-30T00:06:18.248Z,29.40
2017-11-30T00:07:18.222Z,29.80
2017-11-30T00:08:18.196Z,31.00
2017-11-30T00:09:18.169Z,32.20
2017-11-30T00:10:18.142Z,31.30
2017-11-30T00:11:18.115Z,29.50
2017-11-30T00:12:18.088Z,31.10
2017-11-30T00:13:18.062Z,28.50
2017-11-30T00:14:18.034Z,31.20
2017-11-30T00:15:18.012Z,31.00
2017-11-30T00:16:17.990Z,31.60
2017-11-30T00:17:17.955Z,30.10
2017-11-30T00:18:17.927Z,30.80
2017-11-30T00:19:17.906Z,31.20
2017-11-30T00:20:17.876Z,30.00
2017-11-30T00:21:17.849Z,28.40
2017-11-30T00:22:17.822Z,31.70
2017-11-30T00:23:17.798Z,29.30
2017-11-30T00:24:17.769Z,30.20
2017-11-30T00:25:17.744Z,29.20
2017-11-30T00:26:17.717Z,31.60
2017-11-30T00:27:17.696Z,29.40
2017-11-30T00:28:17.676Z,31.70
2017-11-30T00:29:17.634Z,31.40
2017-11-30T00:30:17.608Z,30.60
2017-11-30T00:31:17.585Z,29.80
2017-11-30T00:32:17.558Z,29.10
2017-11-30T00:33:17.528Z,29.60
2017-11-30T00:34:17.501Z,28.90
2017-11-30T00:35:17.475Z,30.30
2017-11-30T00:36:17.448Z,31.90
2017-11-30T00:37:17.427Z,31.10
2017-11-30T00:38:17.396Z,31.10
2017-11-30T00:39:17.368Z,29.80
2017-11-30T00:40:17.343Z,31.00
2017-11-30T00:41:17.314Z,31.20
2017-11-30T00:42:17.288Z,30.00
2017-11-30T00:43:17.259Z,30.20
2017-11-30T00:44:17.238Z,31.10
2017-11-30T00:45:17.209Z,31.60
2017-11-30T00:46:17.181Z,30.80
2017-11-30T00:47:17.155Z,30.80
2017-11-30T00:48:17.129Z,29.70
2017-11-30T00:49:17.101Z,28.10
2017-11-30T00:50:17.077Z,30.70
2017-11-30T00:51:17.048Z,31.00
2017-11-30T00:52:17.022Z,31.00
2017-11-30T00:53:16.995Z,28.20
2017-11-30T00:54:16.969Z,29.10
2017-11-30T00:55:16.942Z,28.00
2017-11-30T00:56:16.912Z,30.70
2017-11-30T00:57:16.888Z,29.30
2017-11-30T00:58:16.860Z,30.30
2017-11-30T00:59:16.834Z,30.90
2017-11-30T01:00:16.805Z,28.50
2017-11-30T01:01:16.798Z,31.10
2017-11-30T01:02:16.753Z,30.70
2017-11-30T01:03:16.728Z,28.40
2017-11-30T01:04:16.701Z,30.80
2017-11-30T01:05:16.674Z,27.60
2017-11-30T01:06:16.645Z,28.60
2017-11-30T01:07:16.620Z,28.30
2017-11-30T01:08:16.595Z,30.70
2017-11-30T01:09:16.568Z,30.70
2017-11-30T01:10:16.540Z,28.50
2017-11-30T01:11:16.521Z,29.40
2017-11-30T01:12:16.487Z,28.20
2017-11-30T01:13:16.464Z,28.10
2017-11-30T01:14:16.433Z,29.10
2017-11-30T01:15:16.404Z,29.50
2017-11-30T01:16:16.381Z,27.80
2017-11-30T01:17:16.353Z,28.50
2017-11-30T01:18:16.325Z,30.30
2017-11-30T01:19:16.299Z,27.90
2017-11-30T01:20:16.273Z,29.20
2017-11-30T01:21:16.245Z,29.70
2017-11-30T01:22:16.218Z,27.10
2017-11-30T01:23:16.191Z,27.40
2017-11-30T01:24:16.164Z,27.00
2017-11-30T01:25:16.140Z,27.80
2017-11-30T01:26:16.109Z,28.90
2017-11-30T01:27:16.085Z,27.90
2017-11-30T01:28:16.058Z,27.90
2017-11-30T01:29:16.032Z,29.60
2017-11-30T01:30:16.002Z,27.70
2017-11-30T01:31:15.978Z,29.00
2017-11-30T01:32:15.950Z,28.20
2017-11-30T01:33:15.921Z,27.00
2017-11-30T01:34:15.897Z,27.40
2017-11-30T01:35:15.876Z,28.30
2017-11-30T01:36:15.850Z,28.40
2017-11-30T01:37:15.818Z,27.60
2017-11-30T01:38:15.791Z,27.90
2017-11-30T01:39:15.763Z,27.30
2017-11-30T01:40:15.736Z,26.40
2017-11-30T01:41:15.712Z,27.50
2017-11-30T01:42:15.684Z,27.30
2017-11-30T01:43:15.657Z,27.30
2017-11-30T01:44:15.629Z,26.60
2017-11-30T01:45:15.605Z,26.90
2017-11-30T01:46:15.576Z,26.50
2017-11-30T01:47:15.550Z,27.10
2017-11-30T01:48:15.522Z,26.70
2017-11-30T01:49:15.496Z,26.50
2017-11-30T01:50:15.470Z,26.70
2017-11-30T01:51:15.442Z,28.70
2017-11-30T01:52:15.418Z,27.90
2017-11-30T01:53:15.393Z,28.20
2017-11-30T01:54:15.362Z,28.20
2017-11-30T01:55:15.335Z,28.40
2017-11-30T01:56:15.310Z,28.00
2017-11-30T01:57:15.284Z,25.60
2017-11-30T01:58:15.257Z,27.50
2017-11-30T01:59:15.230Z,28.20
2017-11-30T02:00:15.203Z,28.80
2017-11-30T02:01:15.175Z,27.90
2017-11-30T02:02:15.150Z,26.40
2017-11-30T02:03:15.134Z,27.90
2017-11-30T02:04:15.096Z,29.70
2017-11-30T02:05:15.071Z,27.10
2017-11-30T02:06:15.043Z,27.30
2017-11-30T02:07:15.016Z,27.00
2017-11-30T02:08:14.989Z,28.90
2017-11-30T02:09:14.963Z,27.60
2017-11-30T02:10:14.936Z,28.60
2017-11-30T02:11:14.909Z,27.80
2017-11-30T02:12:14.882Z,26.50
2017-11-30T02:13:14.854Z,28.20
2017-11-30T02:14:14.829Z,26.70
2017-11-30T02:15:14.802Z,28.40
2017-11-30T02:16:14.776Z,28.70
2017-11-30T02:17:14.749Z,28.30
2017-11-30T02:18:14.723Z,28.30
2017-11-30T02:19:14.696Z,28.00
2017-11-30T02:20:14.669Z,27.20
2017-11-30T02:21:14.643Z,27.00
2017-11-30T02:22:14.617Z,28.10
2017-11-30T02:23:14.587Z,27.70
2017-11-30T02:24:14.561Z,26.30
2017-11-30T02:25:14.538Z,27.50
2017-11-30T02:26:14.510Z,27.40
2017-11-30T02:27:14.483Z,28.90
2017-11-30T02:28:14.455Z,26.70
2017-11-30T02:29:14.430Z,27.30
2017-11-30T02:30:14.405Z,26.30
2017-11-30T02:31:14.380Z,25.70
2017-11-30T02:32:14.350Z,28.40
2017-11-30T02:33:14.323Z,28.10
2017-11-30T02:34:14.297Z,27.50
2017-11-30T02:35:14.268Z,28.30
2017-11-30T02:36:14.243Z,26.30
2017-11-30T02:37:14.218Z,25.70
2017-11-30T02:38:14.189Z,28.30
2017-11-30T02:39:14.163Z,28.10
2017-11-30T02:40:14.140Z,26.90
2017-11-30T02:41:14.114Z,28.90
2017-11-30T02:42:14.083Z,28.90
2017-11-30T02:43:17.224Z,28.10
2017-11-30T02:44:14.034Z,27.00
2017-11-30T02:45:14.004Z,27.30
2017-11-30T02:46:13.981Z,28.40
2017-11-30T02:47:13.950Z,28.60
2017-11-30T02:48:13.929Z,27.80
2017-11-30T02:49:13.896Z,27.90
2017-11-30T02:50:13.870Z,28.20
2017-11-30T02:51:13.847Z,27.80
2017-11-30T02:52:13.816Z,29.10
2017-11-30T02:53:13.790Z,28.90
2017-11-30T02:54:13.765Z,26.90
2017-11-30T02:55:13.737Z,27.70
2017-11-30T02:56:13.710Z,27.90
2017-11-30T02:57:13.680Z,28.60
2017-11-30T02:58:13.654Z,28.10
2017-11-30T02:59:13.627Z,26.50
2017-11-30T03:00:13.603Z,26.40
2017-11-30T03:01:13.573Z,28.90
2017-11-30T03:02:13.547Z,28.40
2017-11-30T03:03:13.519Z,29.80
2017-11-30T03:04:13.493Z,28.20
2017-11-30T03:05:13.467Z,27.00
2017-11-30T03:06:13.446Z,28.20
2017-11-30T03:07:13.410Z,27.40
2017-11-30T03:08:13.390Z,28.30
2017-11-30T03:09:13.359Z,29.00
2017-11-30T03:10:13.334Z,28.80
2017-11-30T03:11:13.306Z,27.80
2017-11-30T03:12:13.280Z,28.50
2017-11-30T03:13:13.257Z,27.70
2017-11-30T03:14:13.223Z,28.30
2017-11-30T03:15:13.199Z,29.00
2017-11-30T03:16:13.171Z,26.80
2017-11-30T03:17:13.149Z,27.90
2017-11-30T03:18:13.118Z,28.90
2017-11-30T03:19:13.088Z,29.80
2017-11-30T03:20:13.063Z,28.40
2017-11-30T03:21:13.038Z,27.60
2017-11-30T03:22:13.007Z,28.20
2017-11-30T03:23:12.985Z,29.30
2017-11-30T03:24:12.959Z,29.80
2017-11-30T03:25:12.930Z,29.10
2017-11-30T03:26:12.903Z,30.80
2017-11-30T03:27:12.875Z,29.60
2017-11-30T03:28:12.857Z,31.70
2017-11-30T03:29:12.823Z,27.90
2017-11-30T03:30:12.796Z,29.10
2017-11-30T03:31:12.770Z,29.60
2017-11-30T03:32:12.746Z,31.60
2017-11-30T03:33:12.715Z,30.50
2017-11-30T03:34:12.688Z,32.10
2017-11-30T03:35:12.660Z,30.90
2017-11-30T03:36:12.633Z,30.90
2017-11-30T03:37:12.608Z,31.60
2017-11-30T03:38:12.580Z,30.80
2017-11-30T03:39:12.554Z,33.30
2017-11-30T03:40:12.524Z,31.00
2017-11-30T03:41:12.500Z,32.90
2017-11-30T03:42:12.472Z,34.20
2017-11-30T03:43:12.446Z,35.70
2017-11-30T03:44:12.419Z,33.00
2017-11-30T03:45:12.392Z,35.60
2017-11-30T03:46:12.366Z,35.00
2017-11-30T03:47:12.337Z,34.20
2017-11-30T03:48:12.310Z,34.50
2017-11-30T03:49:12.284Z,34.00
2017-11-30T03:50:12.256Z,35.90
2017-11-30T03:51:12.225Z,37.30
2017-11-30T03:52:12.201Z,35.40
2017-11-30T03:53:12.174Z,33.40
2017-11-30T03:54:12.148Z,36.10
2017-11-30T03:55:12.119Z,36.40
2017-11-30T03:56:12.094Z,38.10
2017-11-30T03:57:12.070Z,35.20
2017-11-30T03:58:12.040Z,35.70
2017-11-30T03:59:12.016Z,36.30
2017-11-30T04:00:11.996Z,36.30
2017-11-30T04:01:11.958Z,36.80
2017-11-30T04:02:11.930Z,38.80
2017-11-30T04:03:11.902Z,37.70
2017-11-30T04:04:11.877Z,38.10
2017-11-30T04:05:11.850Z,39.30
2017-11-30T04:06:11.821Z,38.30
2017-11-30T04:07:11.804Z,37.40
2017-11-30T04:08:11.770Z,39.60
2017-11-30T04:09:11.741Z,39.30
2017-11-30T04:10:11.712Z,38.60
2017-11-30T04:11:11.699Z,40.30
2017-11-30T04:12:11.658Z,39.60
2017-11-30T04:13:11.631Z,37.80
2017-11-30T04:14:11.602Z,37.90
2017-11-30T04:15:11.576Z,39.30
2017-11-30T04:16:11.548Z,39.60
2017-11-30T04:17:11.522Z,37.90
2017-11-30T04:18:11.492Z,41.00
2017-11-30T04:19:11.467Z,39.70
2017-11-30T04:20:11.438Z,40.20
2017-11-30T04:21:11.413Z,38.80
2017-11-30T04:22:11.385Z,40.60
2017-11-30T04:23:11.353Z,40.30
2017-11-30T04:24:11.330Z,39.90
2017-11-30T04:25:11.301Z,37.20
2017-11-30T04:26:11.273Z,40.60
2017-11-30T04:27:11.246Z,39.80
2017-11-30T04:28:11.219Z,40.80
2017-11-30T04:29:11.191Z,39.10
2017-11-30T04:30:11.164Z,39.30
2017-11-30T04:31:11.137Z,38.50
2017-11-30T04:32:11.109Z,39.10
2017-11-30T04:33:11.080Z,40.50
2017-11-30T04:34:11.064Z,41.90
2017-11-30T04:35:11.024Z,40.70
2017-11-30T04:36:10.997Z,40.00
2017-11-30T04:37:10.970Z,38.70
2017-11-30T04:38:10.942Z,39.00
2017-11-30T04:39:10.912Z,39.70
2017-11-30T04:40:10.888Z,38.40
2017-11-30T04:41:10.858Z,35.90
2017-11-30T04:42:10.832Z,38.40
2017-11-30T04:43:10.804Z,36.60
2017-11-30T04:44:10.816Z,35.70
2017-11-30T04:45:10.749Z,35.60
2017-11-30T04:46:10.727Z,36.40
2017-11-30T04:47:10.694Z,35.60
2017-11-30T04:48:10.668Z,36.20
2017-11-30T04:49:10.644Z,36.40
2017-11-30T04:50:10.611Z,36.50
2017-11-30T04:51:10.584Z,36.80
2017-11-30T04:52:10.557Z,36.20
2017-11-30T04:53:10.529Z,37.00
2017-11-30T04:54:10.501Z,36.80
2017-11-30T04:55:10.480Z,38.00
2017-11-30T04:56:10.450Z,37.50
2017-11-30T04:57:10.420Z,35.40
2017-11-30T04:58:10.393Z,36.40
2017-11-30T04:59:10.366Z,38.40
2017-11-30T05:00:10.339Z,36.20
2017-11-30T05:01:10.312Z,37.90
2017-11-30T05:02:10.282Z,35.50
2017-11-30T05:03:10.256Z,36.00
2017-11-30T05:04:10.229Z,36.70
2017-11-30T05:05:10.202Z,36.30
2017-11-30T05:06:10.173Z,36.90
2017-11-30T05:07:10.152Z,36.40
2017-11-30T05:08:10.119Z,36.20
2017-11-30T05:09:10.092Z,34.60
2017-11-30T05:10:10.064Z,36.40
2017-11-30T05:11:10.043Z,36.90
2017-11-30T05:12:10.014Z,36.60
2017-11-30T05:13:09.989Z,38.10
2017-11-30T05:14:09.951Z,37.80
2017-11-30T05:15:09.926Z,37.40
2017-11-30T05:16:09.900Z,38.40
2017-11-30T05:17:09.872Z,40.50
2017-11-30T05:18:09.845Z,37.40
2017-11-30T05:19:09.817Z,36.40
2017-11-30T05:20:09.790Z,37.50
2017-11-30T05:21:09.764Z,37.60
2017-11-30T05:22:09.734Z,37.50
2017-11-30T05:23:09.710Z,36.90
2017-11-30T05:24:09.681Z,36.90
2017-11-30T05:25:09.654Z,39.20
2017-11-30T05:26:09.627Z,40.00
2017-11-30T05:27:09.598Z,38.80
2017-11-30T05:28:09.572Z,37.40
2017-11-30T05:29:09.545Z,35.90
2017-11-30T05:30:09.517Z,36.40
2017-11-30T05:31:09.491Z,38.40
2017-11-30T05:32:09.463Z,36.00
2017-11-30T05:33:09.437Z,37.40
2017-11-30T05:34:09.410Z,37.60
2017-11-30T05:35:09.380Z,38.90
2017-11-30T05:36:09.354Z,38.20
2017-11-30T05:37:09.327Z,38.00
2017-11-30T05:38:09.297Z,39.40
2017-11-30T05:39:09.271Z,37.60
2017-11-30T05:40:09.248Z,38.60
2017-11-30T05:41:09.216Z,40.00
2017-11-30T05:42:09.189Z,42.00
2017-11-30T05:43:09.161Z,41.20
2017-11-30T05:44:09.138Z,43.90
2017-11-30T05:45:09.104Z,40.70
2017-11-30T05:46:09.079Z,44.10
2017-11-30T05:47:09.050Z,44.40
2017-11-30T05:48:09.031Z,46.30
2017-11-30T05:49:08.998Z,44.40
2017-11-30T05:50:08.967Z,49.40
2017-11-30T05:51:08.941Z,49.20
2017-11-30T05:52:08.912Z,50.10
2017-11-30T05:53:08.886Z,51.40
2017-11-30T05:54:08.857Z,54.40
2017-11-30T05:55:08.833Z,52.80
2017-11-30T05:56:08.803Z,51.50
2017-11-30T05:57:08.776Z,51.50
2017-11-30T05:58:08.747Z,53.60
2017-11-30T05:59:08.721Z,54.00
2017-11-30T06:00:08.693Z,50.50
2017-11-30T06:01:08.666Z,54.30
2017-11-30T06:02:08.637Z,55.10
2017-11-30T06:03:08.611Z,54.80
2017-11-30T06:04:08.584Z,50.50
2017-11-30T06:05:08.557Z,52.80
2017-11-30T06:06:08.528Z,55.90
2017-11-30T06:07:08.502Z,53.10
2017-11-30T06:08:08.475Z,52.70
2017-11-30T06:09:08.444Z,52.20
2017-11-30T06:10:08.419Z,52.20
2017-11-30T06:11:08.391Z,54.90
2017-11-30T06:12:08.362Z,53.70
2017-11-30T06:13:08.337Z,53.00
2017-11-30T06:14:08.308Z,52.90
2017-11-30T06:15:08.280Z,53.10
2017-11-30T06:16:08.255Z,53.00
2017-11-30T06:17:08.228Z,56.20
2017-11-30T06:18:08.198Z,51.60
2017-11-30T06:19:08.173Z,53.50
2017-11-30T06:20:08.145Z,56.10
2017-11-30T06:21:08.120Z,53.90
2017-11-30T06:22:08.097Z,53.80
2017-11-30T06:23:08.063Z,51.90
2017-11-30T06:24:08.037Z,52.40
2017-11-30T06:25:08.009Z,50.00
2017-11-30T06:26:07.983Z,52.00
2017-11-30T06:27:07.954Z,54.20
2017-11-30T06:28:07.936Z,51.70
2017-11-30T06:29:07.901Z,51.60
2017-11-30T06:30:07.873Z,54.50
2017-11-30T06:31:07.848Z,49.30
2017-11-30T06:32:07.819Z,52.40
2017-11-30T06:33:07.793Z,54.00
2017-11-30T06:34:07.766Z,52.40
2017-11-30T06:35:07.738Z,53.90
2017-11-30T06:36:07.714Z,53.00
2017-11-30T06:37:07.682Z,52.50
2017-11-30T06:38:07.657Z,52.00
2017-11-30T06:39:07.629Z,57.40
2017-11-30T06:40:07.601Z,55.30
2017-11-30T06:41:07.573Z,56.20
2017-11-30T06:42:07.547Z,54.60
2017-11-30T06:43:07.518Z,53.90
2017-11-30T06:44:07.492Z,56.50
2017-11-30T06:45:07.466Z,53.50
2017-11-30T06:46:07.437Z,54.00
2017-11-30T06:47:07.409Z,56.10
2017-11-30T06:48:07.389Z,52.80
2017-11-30T06:49:07.357Z,52.40
2017-11-30T06:50:07.329Z,53.40
2017-11-30T06:51:07.301Z,54.30
2017-11-30T06:52:07.276Z,56.40
2017-11-30T06:53:07.250Z,54.30
2017-11-30T06:54:07.220Z,54.40
2017-11-30T06:55:07.192Z,54.00
2017-11-30T06:56:07.169Z,49.60
2017-11-30T06:57:07.139Z,50.70
2017-11-30T06:58:07.111Z,51.60
2017-11-30T06:59:07.086Z,52.50
2017-11-30T07:00:07.058Z,52.60
2017-11-30T07:01:07.035Z,52.30
2017-11-30T07:02:07.004Z,49.50
2017-11-30T07:03:06.975Z,52.90
2017-11-30T07:04:06.949Z,48.50
2017-11-30T07:05:06.923Z,55.20
2017-11-30T07:06:06.892Z,52.10
2017-11-30T07:07:06.867Z,53.30
2017-11-30T07:08:06.842Z,53.30
2017-11-30T07:09:06.812Z,54.20
2017-11-30T07:10:06.787Z,53.50
2017-11-30T07:11:06.760Z,52.60
2017-11-30T07:12:06.735Z,54.70
2017-11-30T07:13:06.705Z,55.20
2017-11-30T07:14:06.679Z,54.10
2017-11-30T07:15:06.651Z,55.30
2017-11-30T07:16:06.623Z,56.50
2017-11-30T07:17:06.603Z,56.40
2017-11-30T07:18:06.579Z,56.40
2017-11-30T07:19:06.553Z,57.30
2017-11-30T07:20:06.517Z,56.50
2017-11-30T07:21:06.492Z,52.50
2017-11-30T07:22:06.461Z,54.50
2017-11-30T07:23:06.434Z,59.30
2017-11-30T07:24:06.408Z,56.90
2017-11-30T07:25:06.378Z,58.50
2017-11-30T07:26:06.352Z,58.50
2017-11-30T07:27:06.325Z,57.30
2017-11-30T07:28:06.298Z,55.80
2017-11-30T07:29:06.273Z,51.70
2017-11-30T07:30:06.250Z,58.90
2017-11-30T07:31:06.215Z,59.00
2017-11-30T07:32:06.190Z,59.10
2017-11-30T07:33:06.163Z,61.20
2017-11-30T07:34:06.136Z,59.20
2017-11-30T07:35:06.108Z,65.30
2017-11-30T07:36:06.082Z,60.90
2017-11-30T07:37:06.055Z,64.10
2017-11-30T07:38:06.025Z,59.40
2017-11-30T07:39:06.000Z,56.30
2017-11-30T07:40:05.974Z,60.00
2017-11-30T07:41:05.953Z,61.20
2017-11-30T07:42:05.918Z,59.50
2017-11-30T07:43:05.890Z,56.50
2017-11-30T07:44:05.871Z,56.30
2017-11-30T07:45:05.843Z,55.30
2017-11-30T07:46:05.807Z,55.70
2017-11-30T07:47:05.784Z,62.60
2017-11-30T07:48:05.757Z,58.40
2017-11-30T07:49:05.731Z,58.50
2017-11-30T07:50:05.703Z,58.20
2017-11-30T07:51:05.683Z,61.20
2017-11-30T07:52:05.653Z,56.50
2017-11-30T07:53:05.621Z,62.90
2017-11-30T07:54:05.596Z,62.10
2017-11-30T07:55:05.563Z,54.60
2017-11-30T07:56:05.542Z,54.90
2017-11-30T07:57:05.516Z,50.70
2017-11-30T07:58:05.486Z,52.90
2017-11-30T07:59:05.460Z,51.70
2017-11-30T08:00:05.432Z,53.90
2017-11-30T08:01:05.405Z,53.40
2017-11-30T08:02:05.388Z,51.40
2017-11-30T08:03:05.352Z,52.30
2017-11-30T08:04:05.322Z,54.90
2017-11-30T08:05:05.296Z,55.50
2017-11-30T08:06:05.268Z,55.40
2017-11-30T08:07:05.242Z,53.90
2017-11-30T08:08:05.217Z,54.10
2017-11-30T08:09:05.189Z,50.40
2017-11-30T08:10:05.163Z,51.00
2017-11-30T08:11:05.135Z,53.80
2017-11-30T08:12:05.110Z,59.70
2017-11-30T08:13:05.083Z,55.50
2017-11-30T08:14:05.057Z,54.10
2017-11-30T08:15:05.032Z,50.80
2017-11-30T08:16:05.005Z,51.40
2017-11-30T08:17:04.974Z,49.80
2017-11-30T08:18:04.945Z,54.60
2017-11-30T08:19:04.926Z,51.90
2017-11-30T08:20:04.894Z,49.20
2017-11-30T08:21:04.868Z,52.70
2017-11-30T08:22:04.839Z,54.60
2017-11-30T08:23:04.811Z,49.30
2017-11-30T08:24:04.787Z,56.10
2017-11-30T08:25:04.759Z,53.70
2017-11-30T08:26:04.731Z,51.80
2017-11-30T08:27:04.706Z,52.20
2017-11-30T08:28:04.678Z,47.60
2017-11-30T08:29:04.653Z,54.70
2017-11-30T08:30:04.624Z,49.70
2017-11-30T08:31:04.599Z,52.20
2017-11-30T08:32:04.570Z,52.00
2017-11-30T08:33:04.545Z,50.50
2017-11-30T08:34:04.522Z,48.50
2017-11-30T08:35:04.493Z,46.00
2017-11-30T08:36:04.465Z,48.30
2017-11-30T08:37:04.439Z,50.60
2017-11-30T08:38:04.411Z,48.60
2017-11-30T08:39:04.383Z,50.50
2017-11-30T08:40:04.355Z,52.10
2017-11-30T08:41:04.332Z,48.70
2017-11-30T08:42:04.304Z,49.10
2017-11-30T08:43:04.281Z,46.40
2017-11-30T08:44:04.249Z,47.40
2017-11-30T08:45:04.227Z,45.30
2017-11-30T08:46:04.196Z,48.10
2017-11-30T08:47:04.170Z,46.90
2017-11-30T08:48:04.152Z,46.60
2017-11-30T08:49:04.116Z,42.70
2017-11-30T08:50:04.090Z,45.10
2017-11-30T08:51:04.065Z,44.10
2017-11-30T08:52:04.035Z,40.80
2017-11-30T08:53:04.013Z,42.40
2017-11-30T08:54:03.985Z,39.60
2017-11-30T08:55:03.959Z,40.30
2017-11-30T08:56:03.929Z,38.00
2017-11-30T08:57:03.907Z,39.00
2017-11-30T08:58:03.881Z,40.50
2017-11-30T08:59:03.853Z,37.10
2017-11-30T09:00:03.828Z,31.70
2017-11-30T09:01:03.802Z,32.90
2017-11-30T09:02:03.774Z,32.60
2017-11-30T09:03:03.759Z,32.50
2017-11-30T09:04:03.727Z,34.90
2017-11-30T09:05:03.698Z,36.00
2017-11-30T09:06:03.668Z,32.90
2017-11-30T09:07:03.644Z,31.50
2017-11-30T09:08:03.617Z,30.00
2017-11-30T09:09:03.591Z,33.30
2017-11-30T09:10:03.572Z,30.10
2017-11-30T09:11:03.540Z,31.30
2017-11-30T09:12:03.513Z,33.30
2017-11-30T09:13:03.487Z,33.60
2017-11-30T09:14:03.460Z,34.60
2017-11-30T09:15:03.432Z,38.00
2017-11-30T09:16:03.408Z,29.50
2017-11-30T09:17:03.382Z,30.80
2017-11-30T09:18:03.353Z,31.80
2017-11-30T09:19:03.329Z,29.00
2017-11-30T09:20:03.307Z,30.50
2017-11-30T09:21:03.277Z,30.60
2017-11-30T09:22:03.250Z,30.20
2017-11-30T09:23:03.227Z,31.10
2017-11-30T09:24:03.200Z,30.20
2017-11-30T09:25:03.183Z,30.30
2017-11-30T09:26:03.147Z,30.50
2017-11-30T09:27:03.121Z,27.10
2017-11-30T09:28:03.095Z,28.30
2017-11-30T09:29:03.069Z,30.20
2017-11-30T09:30:03.042Z,29.70
2017-11-30T09:31:03.016Z,29.60
2017-11-30T09:32:02.990Z,28.40
2017-11-30T09:33:02.966Z,27.50
2017-11-30T09:34:02.937Z,29.30
2017-11-30T09:35:02.915Z,24.70
2017-11-30T09:36:02.886Z,26.90
2017-11-30T09:37:02.866Z,23.80
2017-11-30T09:38:02.832Z,26.60
2017-11-30T09:39:02.805Z,23.90
2017-11-30T09:40:02.782Z,23.90
2017-11-30T09:41:02.755Z,23.70
2017-11-30T09:42:02.727Z,25.50
2017-11-30T09:43:02.704Z,24.60
2017-11-30T09:44:02.675Z,24.00
2017-11-30T09:45:02.652Z,25.00
2017-11-30T09:46:02.624Z,25.80
2017-11-30T09:47:02.595Z,24.00
2017-11-30T09:48:02.575Z,25.50
2017-11-30T09:49:02.547Z,24.50
2017-11-30T09:50:02.517Z,24.20
2017-11-30T09:51:02.493Z,24.50
2017-11-30T09:52:02.467Z,27.90
2017-11-30T09:53:02.442Z,26.20
2017-11-30T09:54:02.415Z,25.80
2017-11-30T09:55:02.389Z,26.50
2017-11-30T09:56:02.363Z,27.40
2017-11-30T09:57:02.336Z,26.40
2017-11-30T09:58:02.310Z,27.20
2017-11-30T09:59:02.284Z,25.70
2017-11-30T10:00:02.259Z,23.70
2017-11-30T10:01:02.234Z,27.20
2017-11-30T10:02:02.205Z,28.80
2017-11-30T10:03:02.180Z,28.40
2017-11-30T10:04:02.153Z,27.60
2017-11-30T10:05:02.129Z,25.80
2017-11-30T10:06:02.105Z,24.10
2017-11-30T10:07:02.089Z,22.90
2017-11-30T10:08:02.051Z,24.50
2017-11-30T10:09:02.032Z,23.80
2017-11-30T10:10:01.998Z,23.10
2017-11-30T10:11:01.973Z,24.00
2017-11-30T10:12:01.947Z,25.00
2017-11-30T10:13:01.920Z,23.70
2017-11-30T10:14:01.894Z,23.70
2017-11-30T10:15:01.866Z,23.80
2017-11-30T10:16:01.847Z,24.10
2017-11-30T10:17:01.815Z,25.60
2017-11-30T10:18:01.791Z,24.20
2017-11-30T10:19:01.763Z,25.90
2017-11-30T10:20:01.739Z,23.70
2017-11-30T10:21:01.712Z,25.30
2017-11-30T10:22:01.691Z,24.90
2017-11-30T10:23:01.660Z,24.20
2017-11-30T10:24:01.636Z,25.50
2017-11-30T10:25:01.609Z,26.30
2017-11-30T10:26:01.585Z,25.30
2017-11-30T10:27:01.556Z,25.80
2017-11-30T10:28:01.531Z,26.50
2017-11-30T10:29:01.507Z,24.10
2017-11-30T10:30:01.478Z,26.20
2017-11-30T10:31:01.451Z,24.10
2017-11-30T10:32:01.426Z,24.80
2017-11-30T10:33:01.401Z,27.30
2017-11-30T10:34:01.373Z,25.70
2017-11-30T10:35:01.351Z,26.40
2017-11-30T10:36:01.323Z,27.40
2017-11-30T10:37:01.296Z,25.80
2017-11-30T10:38:01.269Z,25.30
2017-11-30T10:39:01.251Z,26.70
2017-11-30T10:40:01.222Z,28.60
2017-11-30T10:41:01.197Z,25.80
2017-11-30T10:42:01.166Z,26.70
2017-11-30T10:43:01.140Z,25.40
2017-11-30T10:44:01.115Z,26.50
2017-11-30T10:45:01.090Z,25.00
2017-11-30T10:46:01.063Z,24.00
2017-11-30T10:47:01.035Z,23.30
2017-11-30T10:48:01.013Z,23.70
2017-11-30T10:49:00.983Z,24.00
2017-11-30T10:50:00.958Z,24.00
2017-11-30T10:51:00.932Z,22.80
2017-11-30T10:52:00.910Z,23.10
2017-11-30T10:53:00.881Z,22.20
2017-11-30T10:54:00.859Z,22.00
2017-11-30T10:55:00.827Z,22.10
2017-11-30T10:56:00.817Z,21.90
2017-11-30T10:57:00.788Z,21.80
2017-11-30T10:58:00.749Z,22.80
2017-11-30T10:59:00.726Z,22.70
2017-11-30T11:00:00.701Z,22.10
2017-11-30T11:01:00.673Z,21.90
2017-11-30T11:02:00.709Z,22.70
2017-11-30T11:03:00.618Z,23.20
2017-11-30T11:04:00.597Z,20.60
2017-11-30T11:05:00.569Z,20.40
2017-11-30T11:06:00.543Z,19.80
2017-11-30T11:07:00.516Z,20.20
2017-11-30T11:08:00.494Z,21.10
2017-11-30T11:09:00.474Z,18.80
2017-11-30T11:10:00.440Z,18.30
2017-11-30T11:11:00.413Z,18.50
2017-11-30T11:12:00.389Z,18.50
2017-11-30T11:13:00.383Z,19.90
2017-11-30T11:14:00.337Z,20.60
2017-11-30T11:15:00.310Z,21.30
2017-11-30T11:16:00.285Z,19.40
2017-11-30T11:17:00.258Z,19.20
2017-11-30T11:18:00.237Z,20.60
2017-11-30T11:19:00.204Z,19.90
2017-11-30T11:20:00.182Z,21.00
2017-11-30T11:21:00.157Z,21.00
2017-11-30T11:22:00.131Z,19.80
2017-11-30T11:23:00.104Z,18.20
2017-11-30T11:24:00.078Z,19.00
2017-11-30T11:25:00.054Z,18.80
2017-11-30T11:26:00.028Z,17.50
2017-11-30T11:27:00.005Z,16.10
2017-11-30T11:27:59.976Z,15.40
2017-11-30T11:28:59.952Z,16.60
2017-11-30T11:29:59.922Z,15.90
2017-11-30T11:30:59.898Z,15.50
2017-11-30T11:31:59.871Z,14.60
2017-11-30T11:32:59.849Z,12.80
2017-11-30T11:33:59.822Z,12.60
2017-11-30T11:34:59.827Z,13.20
2017-11-30T11:35:59.774Z,12.60
2017-11-30T11:36:59.747Z,13.00
2017-11-30T11:37:59.739Z,11.70
2017-11-30T11:38:59.702Z,11.70
2017-11-30T11:39:59.670Z,12.40
2017-11-30T11:40:59.644Z,11.90
2017-11-30T11:41:59.619Z,12.00
2017-11-30T11:42:59.595Z,12.70
2017-11-30T11:43:59.567Z,13.00
2017-11-30T11:44:59.548Z,12.80
2017-11-30T11:45:59.518Z,12.30
2017-11-30T11:46:59.512Z,12.10
2017-11-30T11:47:59.466Z,13.70
2017-11-30T11:48:59.441Z,13.40
2017-11-30T11:49:59.419Z,12.70
2017-11-30T11:50:59.390Z,12.40
2017-11-30T11:51:59.365Z,14.00
2017-11-30T11:52:59.338Z,12.30
2017-11-30T11:53:59.311Z,12.40
2017-11-30T11:54:59.288Z,12.50
2017-11-30T11:55:59.319Z,13.70
2017-11-30T11:56:59.239Z,13.80
2017-11-30T11:57:59.210Z,13.30
2017-11-30T11:58:59.187Z,12.70
2017-11-30T11:59:59.161Z,13.60
2017-11-30T12:00:59.136Z,12.80
2017-11-30T12:01:59.109Z,12.90
2017-11-30T12:02:59.085Z,14.00
2017-11-30T12:03:59.085Z,12.70
2017-11-30T12:04:59.038Z,11.90
2017-11-30T12:05:59.010Z,10.60
2017-11-30T12:06:58.983Z,11.60
2017-11-30T12:07:58.972Z,11.10
2017-11-30T12:08:58.933Z,11.50
2017-11-30T12:09:58.909Z,11.70
2017-11-30T12:10:58.883Z,11.00
2017-11-30T12:11:58.860Z,9.80
2017-11-30T12:12:58.833Z,10.50
2017-11-30T12:13:58.809Z,10.30
2017-11-30T12:14:58.780Z,11.60
2017-11-30T12:15:58.760Z,10.80
2017-11-30T12:16:58.732Z,11.50
2017-11-30T12:17:58.707Z,11.80
2017-11-30T12:18:58.683Z,11.50
2017-11-30T12:19:58.662Z,11.40
2017-11-30T12:20:58.642Z,12.80
2017-11-30T12:21:58.609Z,12.60
2017-11-30T12:22:58.581Z,12.90
2017-11-30T12:23:58.557Z,12.80
2017-11-30T12:24:58.540Z,12.30
2017-11-30T12:25:58.508Z,12.70
2017-11-30T12:26:58.484Z,12.70
2017-11-30T12:27:58.472Z,12.60
2017-11-30T12:28:58.431Z,13.40
2017-11-30T12:29:58.408Z,12.30
2017-11-30T12:30:58.381Z,13.80
2017-11-30T12:31:58.358Z,12.40
2017-11-30T12:32:58.342Z,11.60
2017-11-30T12:33:58.314Z,12.40
2017-11-30T12:34:58.281Z,12.00
2017-11-30T12:35:58.256Z,12.00
2017-11-30T12:36:58.231Z,11.60
2017-11-30T12:37:58.206Z,11.60
2017-11-30T12:38:58.182Z,12.60
2017-11-30T12:39:58.157Z,12.00
2017-11-30T12:40:58.130Z,12.30
2017-11-30T12:41:58.103Z,12.50
2017-11-30T12:42:58.081Z,12.00
2017-11-30T12:43:58.054Z,12.00
2017-11-30T12:44:58.028Z,11.90
2017-11-30T12:45:58.001Z,12.10
2017-11-30T12:46:57.976Z,11.70
2017-11-30T12:47:57.952Z,11.50
2017-11-30T12:48:57.936Z,11.60
2017-11-30T12:49:57.901Z,12.00
2017-11-30T12:50:57.873Z,11.80
2017-11-30T12:51:57.849Z,12.20